地図

経路データ

SID SEASON NUMBER BASIN SUBBASIN NAME ISO_TIME NATURE LAT LON WMO_WIND WMO_PRES WMO_AGENCY TRACK_TYPE DIST2LAND LANDFALL IFLAG USA_AGENCY USA_ATCF_ID USA_LAT USA_LON USA_RECORD USA_STATUS USA_WIND USA_PRES USA_SSHS USA_R34_NE USA_R34_SE USA_R34_SW USA_R34_NW USA_R50_NE USA_R50_SE USA_R50_SW USA_R50_NW USA_R64_NE USA_R64_SE USA_R64_SW USA_R64_NW USA_POCI USA_ROCI USA_RMW USA_EYE TOKYO_LAT TOKYO_LON TOKYO_GRADE TOKYO_WIND TOKYO_PRES TOKYO_R50_DIR TOKYO_R50_LONG TOKYO_R50_SHORT TOKYO_R30_DIR TOKYO_R30_LONG TOKYO_R30_SHORT TOKYO_LAND CMA_LAT CMA_LON CMA_CAT CMA_WIND CMA_PRES HKO_LAT HKO_LON HKO_CAT HKO_WIND HKO_PRES NEWDELHI_LAT NEWDELHI_LON NEWDELHI_GRADE NEWDELHI_WIND NEWDELHI_PRES NEWDELHI_CI NEWDELHI_DP NEWDELHI_POCI REUNION_LAT REUNION_LON REUNION_TYPE REUNION_WIND REUNION_PRES REUNION_TNUM REUNION_CI REUNION_RMW REUNION_R34_NE REUNION_R34_SE REUNION_R34_SW REUNION_R34_NW REUNION_R50_NE REUNION_R50_SE REUNION_R50_SW REUNION_R50_NW REUNION_R64_NE REUNION_R64_SE REUNION_R64_SW REUNION_R64_NW BOM_LAT BOM_LON BOM_TYPE BOM_WIND BOM_PRES BOM_TNUM BOM_CI BOM_RMW BOM_R34_NE BOM_R34_SE BOM_R34_SW BOM_R34_NW BOM_R50_NE BOM_R50_SE BOM_R50_SW BOM_R50_NW BOM_R64_NE BOM_R64_SE BOM_R64_SW BOM_R64_NW BOM_ROCI BOM_POCI BOM_EYE BOM_POS_METHOD BOM_PRES_METHOD NADI_LAT NADI_LON NADI_CAT NADI_WIND NADI_PRES WELLINGTON_LAT WELLINGTON_LON WELLINGTON_WIND WELLINGTON_PRES DS824_LAT DS824_LON DS824_STAGE DS824_WIND DS824_PRES TD9636_LAT TD9636_LON TD9636_STAGE TD9636_WIND TD9636_PRES TD9635_LAT TD9635_LON TD9635_WIND TD9635_PRES TD9635_ROCI NEUMANN_LAT NEUMANN_LON NEUMANN_CLASS NEUMANN_WIND NEUMANN_PRES MLC_LAT MLC_LON MLC_CLASS MLC_WIND MLC_PRES USA_GUST BOM_GUST BOM_GUST_PER REUNION_GUST REUNION_GUST_PER USA_SEAHGT USA_SEARAD_NE USA_SEARAD_SE USA_SEARAD_SW USA_SEARAD_NW STORM_SPEED STORM_DIR
1994215N30149 1994 61 WP MM ELLIE 1994-08-03 00:00:00 NR 30.3000 148.700 main 942 942 O_____________ jtwc_wp WP181994 30.3000 148.700 15 -1 3 218
1994215N30149 1994 61 WP MM ELLIE 1994-08-03 03:00:00 NR 30.1875 148.600 main 943 943 P_____________ WP181994 30.1875 148.600 15 -1 3 221
1994215N30149 1994 61 WP MM ELLIE 1994-08-03 06:00:00 NR 30.1000 148.500 main 943 936 O_____________ jtwc_wp WP181994 30.1000 148.500 15 -1 2 231
1994215N30149 1994 61 WP MM ELLIE 1994-08-03 09:00:00 NR 30.0500 148.400 main 936 937 P_____________ WP181994 30.0500 148.400 15 -1 2 240
1994215N30149 1994 61 WP MM ELLIE 1994-08-03 12:00:00 NR 30.0000 148.300 main 937 930 O_____________ jtwc_wp WP181994 30.0000 148.300 15 -1 2 229
1994215N30149 1994 61 WP MM ELLIE 1994-08-03 15:00:00 NR 29.9000 148.200 main 938 938 P_____________ WP181994 29.9000 148.200 15 -1 3 221
1994215N30149 1994 61 WP MM ELLIE 1994-08-03 18:00:00 NR 29.8000 148.100 main 938 931 O_____________ jtwc_wp WP181994 29.8000 148.100 15 -1 2 229
1994215N30149 1994 61 WP MM ELLIE 1994-08-03 21:00:00 NR 29.7500 148.000 main 939 932 P_____________ WP181994 29.7500 148.000 15 -1 2 240
1994215N30149 1994 61 WP MM ELLIE 1994-08-04 00:00:00 NR 29.7000 147.900 main 932 925 O_____________ jtwc_wp WP181994 29.7000 147.900 15 -1 2 230
1994215N30149 1994 61 WP MM ELLIE 1994-08-04 03:00:00 NR 29.6075 147.800 main 932 932 P_____________ WP181994 29.6075 147.800 15 -1 3 221
1994215N30149 1994 61 WP MM ELLIE 1994-08-04 06:00:00 NR 29.5000 147.700 main 933 933 O_____________ jtwc_wp WP181994 29.5000 147.700 15 -1 3 220
1994215N30149 1994 61 WP MM ELLIE 1994-08-04 09:00:00 NR 29.4000 147.600 main 934 934 P_____________ WP181994 29.4000 147.600 15 -1 3 221
1994215N30149 1994 61 WP MM ELLIE 1994-08-04 12:00:00 NR 29.3000 147.500 main 936 929 O_____________ jtwc_wp WP181994 29.3000 147.500 15 -1 3 222
1994215N30149 1994 61 WP MM ELLIE 1994-08-04 15:00:00 NR 29.2000 147.393 main 937 931 P_____________ WP181994 29.2000 147.393 15 -1 3 221
1994215N30149 1994 61 WP MM ELLIE 1994-08-04 18:00:00 NR 29.1000 147.300 main 939 939 O_____________ jtwc_wp WP181994 29.1000 147.300 15 -1 2 213
1994215N30149 1994 61 WP MM ELLIE 1994-08-04 21:00:00 NR 29.0000 147.250 main 947 941 P_____________ WP181994 29.0000 147.250 17 -1 2 205
1994215N30149 1994 61 WP MM ELLIE 1994-08-05 00:00:00 NR 28.9000 147.200 main 949 949 O_____________ jtwc_wp WP181994 28.9000 147.200 20 -1 2 214
1994215N30149 1994 61 WP MM ELLIE 1994-08-05 03:00:00 NR 28.8000 147.100 main 952 945 P_____________ WP181994 28.8000 147.100 20 -1 3 222
1994215N30149 1994 61 WP MM ELLIE 1994-08-05 06:00:00 NR 28.7000 147.000 main 954 954 O_____________ jtwc_wp WP181994 28.7000 147.000 20 -1 2 215
1994215N30149 1994 61 WP MM ELLIE 1994-08-05 09:00:00 NR 28.6000 146.943 main 957 957 P_____________ WP181994 28.6000 146.943 20 -1 2 205
1994215N30149 1994 61 WP MM ELLIE 1994-08-05 12:00:00 NR 28.5000 146.900 main 965 965 O_____________ jtwc_wp WP181994 28.5000 146.900 20 -1 2 203
1994215N30149 1994 61 WP MM ELLIE 1994-08-05 15:00:00 NR 28.4075 146.858 main 974 968 P_____________ WP181994 28.4075 146.858 20 -1 2 205
1994215N30149 1994 61 WP MM ELLIE 1994-08-05 18:00:00 NR 28.3000 146.800 main 977 977 O_____________ jtwc_wp WP181994 28.3000 146.800 20 -1 3 211
1994215N30149 1994 61 WP MM ELLIE 1994-08-05 21:00:00 NR 28.1800 146.700 main 981 981 P_____________ WP181994 28.1800 146.700 22 -1 3 224
1994215N30149 1994 61 WP MM ELLIE 1994-08-06 00:00:00 TS 28.1000 146.580 1008 tokyo main 984 984 OO____________ jtwc_wp WP181994 28.0000 146.600 25 -1 28.5000 146.500 2 1008 0 0 0 3 210
1994215N30149 1994 61 WP MM ELLIE 1994-08-06 03:00:00 TS 27.8983 146.522 main 997 997 PP____________ WP181994 27.7225 146.535 25 -1 28.2500 146.495 2 1008 0 0 3 192
1994215N30149 1994 61 WP MM ELLIE 1994-08-06 06:00:00 TS 27.7625 146.500 1008 tokyo main 1006 1006 OOO___________ jtwc_wp WP181994 27.4000 146.500 25 -1 28.0000 146.500 2 1008 0 0 0 28.5000 146.500 0 19 1008 3 182
1994215N30149 1994 61 WP MM ELLIE 1994-08-06 09:00:00 TS 27.5870 146.508 main 1025 1025 PPP___________ WP181994 27.0925 146.508 25 -1 27.7500 146.515 2 1008 0 0 28.2500 146.495 0 19 1008 4 176
1994215N30149 1994 61 WP MM ELLIE 1994-08-06 12:00:00 TS 27.3818 146.500 1008 tokyo main 1044 1044 OOO___________ jtwc_wp WP181994 26.8000 146.500 25 -1 27.5000 146.500 2 1008 0 0 0 28.0000 146.500 0 19 1008 4 188
1994215N30149 1994 61 WP MM ELLIE 1994-08-06 15:00:00 TS 27.1783 146.451 main 1063 1057 PPP___________ WP181994 26.5350 146.415 25 -1 27.2500 146.423 2 1008 0 0 27.7500 146.515 0 19 1008 5 194
1994215N30149 1994 61 WP MM ELLIE 1994-08-06 18:00:00 TS 26.9333 146.367 1008 tokyo main 1085 1080 OOO___________ jtwc_wp WP181994 26.3000 146.300 25 -1 27.0000 146.300 2 1008 0 0 0 27.5000 146.500 0 19 1008 5 199
1994215N30149 1994 61 WP MM ELLIE 1994-08-06 21:00:00 TS 26.7075 146.268 main 1099 1093 PPP___________ WP181994 26.0850 146.208 27 -1 26.7874 146.173 2 1008 0 0 27.2500 146.423 0 21 1007 5 204
1994215N30149 1994 61 WP MM ELLIE 1994-08-07 00:00:00 TS 26.4667 146.133 1008 tokyo main 1107 1107 OOO___________ jtwc_wp WP181994 25.9000 146.100 30 -1 26.5000 146.000 2 1008 0 0 0 27.0000 146.300 1 23 1006 6 206
1994215N30149 1994 61 WP MM ELLIE 1994-08-07 03:00:00 TS 26.1741 145.983 main 1131 1131 PPP___________ WP181994 25.7349 145.973 30 -1 26.0000 145.765 2 1007 0 0 26.7872 146.211 1 26 1005 7 212
1994215N30149 1994 61 WP MM ELLIE 1994-08-07 06:00:00 TS 25.8462 145.708 1006 tokyo main 1156 1152 OOOO__________ jtwc_wp WP181994 25.6000 145.800 30 -1 25.5000 145.500 2 1006 0 0 0 26.5000 146.000 1 29 1004 25.6000 145.000 TD 25 1004 8 222
1994215N30149 1994 61 WP MM ELLIE 1994-08-07 09:00:00 TS 25.5466 145.353 main 1173 1165 PPPP__________ WP181994 25.4925 145.565 30 -1 25.1751 145.213 2 1006 0 0 26.0005 145.529 1 29 1004 25.4900 144.860 TD 25 1004 8 230
1994215N30149 1994 61 WP MM ELLIE 1994-08-07 12:00:00 TS 25.3200 145.020 1006 tokyo main 1177 1173 OOOO__________ jtwc_wp WP181994 25.4000 145.300 30 -1 25.0000 145.000 2 1006 0 0 0 25.5000 145.000 1 29 1004 25.4000 144.700 TD 25 1004 6 236
1994215N30149 1994 61 WP MM ELLIE 1994-08-07 15:00:00 TS 25.1931 144.778 main 1180 1176 PPPP__________ WP181994 25.2925 145.050 30 -1 24.9624 144.978 2 1005 0 0 25.1750 144.575 1 29 1003 25.3425 144.508 TD 27 1003 4 243
1994215N30149 1994 61 WP MM ELLIE 1994-08-07 18:00:00 TS 25.1250 144.600 1004 tokyo main 1182 1179 OOOO__________ jtwc_wp WP181994 25.2000 144.800 30 -1 25.0000 145.000 2 1004 0 0 0 25.0000 144.300 1 29 1002 25.3000 144.300 TD 30 1002 3 247
1994215N30149 1994 61 WP MM ELLIE 1994-08-07 21:00:00 TS 25.0811 144.481 main 1179 1172 PPPP__________ WP181994 25.1424 144.565 32 -1 24.9922 144.982 2 1003 0 0 24.9473 144.278 1 29 1001 25.2425 144.100 TD 32 1001 3 259
1994215N30149 1994 61 WP MM ELLIE 1994-08-08 00:00:00 TS 25.0750 144.325 1002 tokyo main 1172 1165 OOOO__________ jtwc_wp WP181994 25.1000 144.300 35 0 25.0000 144.800 2 1002 0 0 0 25.0000 144.300 1 29 1000 25.2000 143.900 TS 35 1000 4 272
1994215N30149 1994 61 WP MM ELLIE 1994-08-08 03:00:00 TS 25.0944 144.036 main 1162 1152 PPPP__________ WP181994 25.0500 143.965 35 0 25.0430 144.303 2 1001 0 0 25.0923 144.168 1 33 997 25.1924 143.708 TS 35 1000 6 275
1994215N30149 1994 61 WP MM ELLIE 1994-08-08 06:00:00 TS 25.1250 143.675 35 1000 tokyo main 1152 1141 OOOO__________ jtwc_wp WP181994 25.0000 143.600 35 0 25.1000 143.700 3 35 1000 0 9 120 120 0 25.2000 143.900 2 38 995 25.2000 143.500 TS 35 1000 7 274
1994215N30149 1994 61 WP MM ELLIE 1994-08-08 09:00:00 TS 25.1450 143.304 main 1141 1120 PPPP__________ WP181994 24.9499 143.250 37 0 25.1574 143.213 3 37 998 0 9 130 130 25.2727 143.480 2 38 995 25.1999 143.273 TS 35 1000 7 272
1994215N30149 1994 61 WP MM ELLIE 1994-08-08 12:00:00 TS 25.1500 142.925 40 996 tokyo main 1120 1110 OOOO__________ jtwc_wp WP181994 24.9000 142.900 40 0 25.2000 142.800 3 40 996 0 9 140 140 0 25.3000 143.000 2 38 995 25.2000 143.000 TS 35 1000 7 270
1994215N30149 1994 61 WP MM ELLIE 1994-08-08 15:00:00 TS 25.1474 142.569 main 1121 1109 PPPP__________ WP181994 24.8574 142.550 42 0 25.2298 142.478 3 40 994 0 9 140 140 25.2799 142.577 2 38 992 25.2225 142.673 TS 37 997 6 265
1994215N30149 1994 61 WP MM ELLIE 1994-08-08 18:00:00 TS 25.1000 142.225 40 992 tokyo main 1109 1106 OOOO__________ jtwc_wp WP181994 24.8000 142.200 45 0 25.2000 142.200 3 40 992 0 9 140 140 0 25.2000 142.200 2 38 990 25.2000 142.300 TS 40 995 6 254
1994215N30149 1994 61 WP MM ELLIE 1994-08-08 21:00:00 TS 24.9791 141.904 main 1107 1102 PPPP__________ WP181994 24.7074 141.858 47 0 25.0722 141.930 3 40 991 0 9 140 140 25.0646 141.915 2 43 990 25.0724 141.915 TS 42 992 7 246
1994215N30149 1994 61 WP MM ELLIE 1994-08-09 00:00:00 TS 24.8250 141.550 40 990 tokyo main 1112 1097 OOOO__________ jtwc_wp WP181994 24.6000 141.500 50 0 24.9000 141.600 3 40 990 0 9 140 140 0 24.9000 141.600 3 48 990 24.9000 141.500 TS 45 990 8 248
1994215N30149 1994 61 WP MM ELLIE 1994-08-09 03:00:00 TS 24.6820 141.093 main 1098 1086 PPPP__________ WP181994 24.5075 141.108 50 0 24.7428 141.107 3 42 987 0 9 220 160 24.7428 141.107 3 48 990 24.7350 141.050 TS 45 990 9 252
1994215N30149 1994 61 WP MM ELLIE 1994-08-09 06:00:00 TS 24.5500 140.625 45 985 tokyo main 1086 1085 OOOO__________ jtwc_wp WP181994 24.4000 140.700 50 0 24.6000 140.600 3 45 985 0 3 300 180 0 24.6000 140.600 3 48 990 24.6000 140.600 TS 45 990 8 253
1994215N30149 1994 61 WP MM ELLIE 1994-08-09 09:00:00 TS 24.4442 140.237 main 1091 1080 PPPP__________ WP181994 24.2500 140.292 52 0 24.4922 140.235 3 45 985 0 3 300 180 24.4922 140.235 3 48 990 24.5424 140.185 TS 47 987 7 254
1994215N30149 1994 61 WP MM ELLIE 1994-08-09 12:00:00 TS 24.3500 139.875 45 985 tokyo main 1080 1077 OOOO__________ jtwc_wp WP181994 24.1000 139.900 55 0 24.4000 139.900 3 45 985 0 3 300 180 0 24.4000 139.900 3 48 990 24.5000 139.800 STS 50 985 7 255
1994215N30149 1994 61 WP MM ELLIE 1994-08-09 15:00:00 TS 24.2669 139.485 main 1077 1074 PPPP__________ WP181994 24.0075 139.528 55 0 24.3151 139.493 3 47 982 0 3 300 180 24.3151 139.493 3 48 987 24.4300 139.428 STS 50 985 7 254
1994215N30149 1994 61 WP MM ELLIE 1994-08-09 18:00:00 TS 24.1500 139.125 50 980 tokyo main 1075 1075 OOOO__________ jtwc_wp WP181994 23.9000 139.200 55 0 24.2000 139.100 4 50 980 0 3 300 180 0 24.2000 139.100 3 48 985 24.3000 139.100 STS 50 985 7 244
1994215N30149 1994 61 WP MM ELLIE 1994-08-09 21:00:00 TS 23.9600 138.792 main 1089 1089 PPPP__________ WP181994 23.7150 138.897 57 0 24.0225 138.732 4 50 980 0 3 300 180 24.0225 138.732 3 48 985 24.0800 138.805 STS 50 985 7 230
1994215N30149 1994 61 WP MM ELLIE 1994-08-10 00:00:00 TS 23.7250 138.575 50 980 tokyo main 1113 1107 OOOO__________ jtwc_wp WP181994 23.5000 138.700 60 0 23.8000 138.500 4 50 980 0 3 300 180 0 23.8000 138.500 3 48 985 23.8000 138.600 STS 50 985 6 206
1994215N30149 1994 61 WP MM ELLIE 1994-08-10 03:00:00 TS 23.4505 138.524 main 1125 1125 PPPP__________ WP181994 23.2774 138.648 60 0 23.5274 138.483 4 50 980 0 3 300 190 23.5274 138.483 3 48 985 23.4699 138.483 STS 50 985 5 178
1994215N30149 1994 61 WP MM ELLIE 1994-08-10 06:00:00 TS 23.2250 138.600 50 980 tokyo main 1158 1158 OOOO__________ jtwc_wp WP181994 23.1000 138.700 60 0 23.3000 138.600 4 50 980 0 3 300 200 0 23.3000 138.600 3 48 985 23.2000 138.500 STS 50 985 4 149
1994215N30149 1994 61 WP MM ELLIE 1994-08-10 09:00:00 TS 23.1151 138.739 main 1173 1173 PPPP__________ WP181994 22.9900 138.793 62 0 23.1975 138.743 4 50 980 0 3 300 200 23.1975 138.743 3 53 982 23.0751 138.678 STS 52 982 3 110
1994215N30149 1994 61 WP MM ELLIE 1994-08-10 12:00:00 TS 23.1250 138.900 50 980 tokyo main 1185 1180 OOOO__________ jtwc_wp WP181994 23.0000 138.900 65 1 23.2000 138.900 4 50 980 0 3 300 200 0 23.2000 138.900 3 58 980 23.1000 138.900 STS 55 980 3 67
1994215N30149 1994 61 WP MM ELLIE 1994-08-10 15:00:00 TS 23.2225 139.021 main 1180 1161 PPPP__________ WP181994 23.1400 138.972 65 1 23.2475 139.037 4 50 980 0 3 300 200 23.2475 139.037 3 58 980 23.2550 139.037 STS 57 977 3 28
1994215N30149 1994 61 WP MM ELLIE 1994-08-10 18:00:00 TS 23.4250 139.075 50 980 tokyo main 1161 1129 OOOO__________ jtwc_wp WP181994 23.4000 139.000 65 1 23.4000 139.100 4 50 980 0 3 300 200 0 23.4000 139.100 3 58 980 23.5000 139.100 STS 60 975 5 4
1994215N30149 1994 61 WP MM ELLIE 1994-08-10 21:00:00 TS 23.6762 139.056 main 1129 1091 PPPP__________ WP181994 23.7199 139.002 67 1 23.6399 139.052 4 52 977 0 3 312 220 23.6399 139.052 3 58 980 23.7049 139.117 STS 60 975 6 347
1994215N30149 1994 61 WP MM ELLIE 1994-08-11 00:00:00 TS 24.0250 138.925 55 975 tokyo main 1091 1032 OOOO__________ jtwc_wp WP181994 24.1000 138.900 70 1 24.0000 138.900 4 55 975 9 50 50 2 325 240 0 24.0000 138.900 3 58 980 24.0000 139.000 STS 60 975 9 338
1994215N30149 1994 61 WP MM ELLIE 1994-08-11 03:00:00 TS 24.4774 138.696 main 1032 981 PPPP__________ WP181994 24.4925 138.653 70 1 24.4698 138.710 4 55 975 9 50 50 2 325 240 24.4698 138.710 3 58 980 24.4775 138.710 STS 60 975 11 331
1994215N30149 1994 61 WP MM ELLIE 1994-08-11 06:00:00 TS 24.9750 138.350 55 975 tokyo main 970 915 OOOO__________ jtwc_wp WP181994 24.9000 138.300 70 1 25.0000 138.400 4 55 975 9 50 50 2 325 240 0 25.0000 138.400 3 58 980 25.0000 138.300 STS 60 975 12 324
1994215N30149 1994 61 WP MM ELLIE 1994-08-11 09:00:00 TS 25.4400 137.919 main 915 852 PPPP__________ WP181994 25.2999 137.930 72 1 25.5226 137.938 4 55 975 9 50 50 2 325 240 25.5226 137.938 3 58 980 25.4149 137.872 STS 60 975 12 317
1994215N30149 1994 61 WP MM ELLIE 1994-08-11 12:00:00 TS 25.8750 137.425 55 975 tokyo main 847 795 OOOO__________ jtwc_wp WP181994 25.7000 137.500 75 1 26.0000 137.400 4 55 975 9 50 50 2 325 240 0 26.0000 137.400 3 58 980 25.8000 137.400 STS 60 975 12 313
1994215N30149 1994 61 WP MM ELLIE 1994-08-11 15:00:00 TS 26.2666 136.940 main 780 729 PPPP__________ WP181994 26.0998 137.030 75 1 26.3797 136.907 4 55 975 9 50 50 2 325 240 26.3797 136.907 3 58 980 26.2073 136.915 STS 60 975 12 310
1994215N30149 1994 61 WP MM ELLIE 1994-08-11 18:00:00 TS 26.6250 136.425 55 975 tokyo main 722 665 OOOO__________ jtwc_wp WP181994 26.5000 136.500 75 1 26.7000 136.400 4 55 975 9 50 50 2 325 240 0 26.7000 136.400 3 58 980 26.6000 136.400 STS 60 975 12 306
1994215N30149 1994 61 WP MM ELLIE 1994-08-11 21:00:00 TS 26.9604 135.877 main 656 593 PPPP__________ WP181994 26.9074 135.915 75 1 26.9923 135.864 4 55 975 9 50 50 2 337 255 26.9923 135.864 3 58 980 26.9498 135.864 STS 62 972 12 304
1994215N30149 1994 61 WP MM ELLIE 1994-08-12 00:00:00 TS 27.3000 135.300 55 975 tokyo main 593 521 OOOO__________ jtwc_wp WP181994 27.3000 135.300 75 1 27.3000 135.300 4 55 975 9 50 50 2 350 270 0 27.3000 135.300 3 58 980 27.3000 135.300 T 65 970 13 305
1994215N30149 1994 61 WP MM ELLIE 1994-08-12 03:00:00 TS 27.6909 134.700 main 521 450 PPPP__________ WP181994 27.6571 134.707 75 1 27.7069 134.687 4 60 972 9 60 60 2 350 270 27.6924 134.700 3 63 977 27.7073 134.708 T 67 967 13 306
1994215N30149 1994 61 WP MM ELLIE 1994-08-12 06:00:00 TS 28.0750 134.100 65 970 tokyo main 450 396 OOOO__________ jtwc_wp WP181994 28.0000 134.100 75 1 28.1000 134.100 5 65 970 9 70 70 2 350 270 0 28.1000 134.100 4 68 975 28.1000 134.100 T 70 965 13 305
1994215N30149 1994 61 WP MM ELLIE 1994-08-12 09:00:00 TS 28.4071 133.536 65 970 tokyo main 391 338 POPP__________ WP181994 28.3497 133.465 77 1 28.4000 133.600 5 65 970 9 70 70 2 350 270 0 28.4643 133.572 4 68 972 28.4146 133.507 T 70 965 12 303
1994215N30149 1994 61 WP MM ELLIE 1994-08-12 12:00:00 TS 28.7500 132.925 70 965 tokyo main 323 271 OOOO__________ jtwc_wp WP181994 28.7000 132.800 80 1 28.8000 133.000 5 70 965 9 80 80 2 350 270 0 28.8000 133.000 4 68 970 28.7000 132.900 T 70 965 13 300
1994215N30149 1994 61 WP MM ELLIE 1994-08-12 15:00:00 TS 29.0662 132.232 70 965 tokyo main 256 194 POPP__________ WP181994 29.0573 132.107 80 1 29.1000 132.300 5 70 965 9 80 80 2 350 270 0 29.1078 132.265 4 68 970 28.9998 132.257 T 70 965 14 297
1994215N30149 1994 61 WP MM ELLIE 1994-08-12 18:00:00 TS 29.3750 131.500 70 965 tokyo main 194 146 OOOO__________ jtwc_wp WP181994 29.4000 131.400 80 1 29.4000 131.500 5 70 965 9 80 80 2 350 270 0 29.4000 131.500 4 68 970 29.3000 131.600 T 70 965 14 296
1994215N30149 1994 61 WP MM ELLIE 1994-08-12 21:00:00 TS 29.6746 130.828 70 965 tokyo main 145 121 POPP__________ WP181994 29.6996 130.699 80 1 29.7000 130.800 5 70 965 9 80 80 2 350 270 0 29.6992 130.849 4 68 970 29.5995 130.964 T 70 965 13 298
1994215N30149 1994 61 WP MM ELLIE 1994-08-13 00:00:00 TS 29.9750 130.175 70 965 tokyo main 121 120 OOOO__________ jtwc_wp WP181994 30.0000 130.000 80 1 30.0000 130.200 5 70 965 9 80 80 2 300 270 0 30.0000 130.200 4 68 970 29.9000 130.300 T 70 965 13 297
1994215N30149 1994 61 WP MM ELLIE 1994-08-13 03:00:00 TS 30.2893 129.452 70 965 tokyo main 120 120 POPP__________ WP181994 30.3571 129.300 80 1 30.3000 129.500 5 70 965 9 80 80 2 300 270 0 30.3001 129.450 4 72 965 30.1999 129.557 T 70 965 14 297
1994215N30149 1994 61 WP MM ELLIE 1994-08-13 06:00:00 TS 30.6000 128.750 70 965 tokyo main 149 149 OOOO__________ jtwc_wp WP181994 30.7000 128.600 80 1 30.6000 128.900 5 70 965 9 80 80 2 300 270 0 30.6000 128.700 4 77 960 30.5000 128.800 T 70 965 14 296
1994215N30149 1994 61 WP MM ELLIE 1994-08-13 09:00:00 TS 30.8965 128.035 70 965 tokyo main 211 211 POPP__________ WP181994 30.9646 127.899 77 1 30.9000 128.100 5 70 965 9 80 80 2 300 270 0 30.9142 128.050 4 77 960 30.8070 128.092 T 70 965 13 296
1994215N30149 1994 61 WP MM ELLIE 1994-08-13 12:00:00 TS 31.1750 127.350 70 965 tokyo main 235 200 OOOO__________ jtwc_wp WP181994 31.2000 127.200 75 1 31.2000 127.400 5 70 965 9 80 80 9 270 270 0 31.2000 127.400 4 77 960 31.1000 127.400 T 70 965 13 294
1994215N30149 1994 61 WP MM ELLIE 1994-08-13 15:00:00 TS 31.4324 126.607 70 965 tokyo main 200 178 POPP__________ WP181994 31.4647 126.493 75 1 31.5000 126.600 5 70 965 9 80 80 9 270 270 0 31.4002 126.642 4 72 965 31.3647 126.692 T 70 965 13 291
1994215N30149 1994 61 WP MM ELLIE 1994-08-13 18:00:00 TS 31.6500 125.900 65 970 tokyo main 171 169 OOOO__________ jtwc_wp WP181994 31.7000 125.800 75 1 31.7000 125.900 5 65 970 9 60 60 9 240 240 0 31.6000 125.900 4 68 970 31.6000 126.000 T 70 965 12 291
1994215N30149 1994 61 WP MM ELLIE 1994-08-13 21:00:00 TS 31.8849 125.249 main 177 177 PPPP__________ WP181994 31.8648 125.127 72 1 31.9531 125.273 5 65 970 9 60 60 9 225 225 31.9070 125.270 4 68 970 31.8148 125.327 T 70 965 12 293
1994215N30149 1994 61 WP MM ELLIE 1994-08-14 00:00:00 TS 32.1000 124.650 65 970 tokyo main 193 193 OOOO__________ jtwc_wp WP181994 32.0000 124.500 70 1 32.2000 124.700 5 65 970 9 60 60 9 210 210 0 32.2000 124.700 4 68 970 32.0000 124.700 T 70 965 11 291
1994215N30149 1994 61 WP MM ELLIE 1994-08-14 03:00:00 TS 32.2591 124.075 main 217 177 PPPP__________ WP181994 32.1273 123.912 70 1 32.3723 124.127 5 62 972 9 50 50 9 195 195 32.3797 124.135 4 68 970 32.1571 124.127 T 67 967 10 288
1994215N30149 1994 61 WP MM ELLIE 1994-08-14 06:00:00 TS 32.4000 123.550 60 975 tokyo main 177 142 OOOO__________ jtwc_wp WP181994 32.3000 123.400 70 1 32.5000 123.600 4 60 975 9 40 40 9 180 180 0 32.5000 123.600 4 68 970 32.3000 123.600 T 65 970 9 289
1994215N30149 1994 61 WP MM ELLIE 1994-08-14 09:00:00 TS 32.5530 123.050 main 139 114 PPPP__________ WP181994 32.5773 122.955 67 1 32.5923 123.120 4 57 977 9 35 35 9 165 165 32.6000 123.062 4 63 975 32.4425 123.062 T 60 975 8 293
1994215N30149 1994 61 WP MM ELLIE 1994-08-14 12:00:00 TS 32.7250 122.625 55 980 tokyo main 114 100 OOOO__________ jtwc_wp WP181994 32.9000 122.600 65 1 32.7000 122.700 4 55 980 9 30 30 9 150 150 0 32.7000 122.600 3 58 980 32.6000 122.600 STS 55 980 7 298
1994215N30149 1994 61 WP MM ELLIE 1994-08-14 15:00:00 TS 32.8961 122.269 main 100 93 PPPP__________ WP181994 33.1849 122.305 65 1 32.8475 122.290 4 52 982 9 9 135 135 32.7898 122.240 3 58 980 32.7623 122.240 STS 52 980 7 310
1994215N30149 1994 61 WP MM ELLIE 1994-08-14 18:00:00 TS 33.1500 122.025 50 985 tokyo main 105 103 OOOO__________ jtwc_wp WP181994 33.5000 122.100 65 1 33.1000 122.000 4 50 985 0 9 120 120 0 33.0000 122.000 3 58 980 33.0000 122.000 STS 50 980 7 334
1994215N30149 1994 61 WP MM ELLIE 1994-08-14 21:00:00 TS 33.5349 121.891 main 114 114 PPPP__________ WP181994 33.8699 121.955 65 1 33.4973 121.905 4 50 985 0 9 120 120 33.4399 121.855 3 53 982 33.3324 121.848 STS 50 980 9 350
1994215N30149 1994 61 WP MM ELLIE 1994-08-15 00:00:00 TS 34.0250 121.850 50 985 tokyo main 132 127 OOOO__________ jtwc_wp WP181994 34.3000 121.900 65 1 34.0000 121.900 4 50 985 0 9 120 120 0 34.0000 121.800 3 48 985 33.8000 121.800 STS 50 980 10 358
1994215N30149 1994 61 WP MM ELLIE 1994-08-15 03:00:00 TS 34.5631 121.845 main 141 141 PPPP__________ WP181994 34.7700 121.927 62 0 34.5425 121.850 4 50 985 0 9 120 120 34.5275 121.777 3 48 985 34.4125 121.827 STS 50 980 11 0
1994215N30149 1994 61 WP MM ELLIE 1994-08-15 06:00:00 TS 35.1533 121.873 50 985 tokyo main 147 114 OOOO__________ jtwc_wp WP181994 35.3000 122.000 60 0 35.1000 121.800 4 50 985 0 9 120 120 0 35.1000 121.800 3 48 985 35.1000 121.900 STS 50 980 12 2
1994215N30149 1994 61 WP MM ELLIE 1994-08-15 09:00:00 TS 35.7239 121.883 main 114 51 PPPP__________ WP181994 35.8700 122.043 60 0 35.5775 121.750 4 50 985 0 9 120 120 35.7050 121.821 3 48 985 35.7625 121.958 STS 50 980 12 0
1994215N30149 1994 61 WP MM ELLIE 1994-08-15 12:00:00 TS 36.3385 121.908 50 985 tokyo main 51 0 OOOO__________ jtwc_wp WP181994 36.5000 122.100 60 0 36.1000 121.700 4 50 985 0 9 120 120 0 36.4000 121.900 3 48 985 36.4000 122.000 STS 50 980 13 3
1994215N30149 1994 61 WP MM ELLIE 1994-08-15 15:00:00 TS 37.0608 121.959 main 0 0 PPP___________ WP181994 37.1700 122.185 57 0 36.7473 121.585 4 50 985 0 9 120 120 37.2652 122.106 3 48 987 STS 15 5
1994215N30149 1994 61 WP MM ELLIE 1994-08-15 18:00:00 TS 37.8333 122.067 50 985 tokyo main 33 33 OOO___________ jtwc_wp WP181994 37.9000 122.300 55 0 37.5000 121.600 4 50 985 0 9 120 120 0 38.1000 122.300 3 48 990 15 7
1994215N30149 1994 61 WP MM ELLIE 1994-08-15 21:00:00 TS 38.5537 122.174 main 51 11 PPP___________ WP181994 38.6624 122.421 50 0 38.3497 121.887 4 47 987 0 9 120 120 38.6491 122.215 3 48 990 15 11
1994215N30149 1994 61 WP MM ELLIE 1994-08-16 00:00:00 TS 39.3000 122.433 45 990 tokyo main 11 0 OOO___________ jtwc_wp WP181994 39.5000 122.600 45 0 39.2000 122.400 3 45 990 0 9 120 120 0 39.2000 122.300 3 48 990 16 20
1994215N30149 1994 61 WP MM ELLIE 1994-08-16 03:00:00 TS 40.0970 122.889 main 0 0 PPP___________ WP181994 40.4118 122.813 40 0 39.8753 122.956 3 42 992 0 9 120 120 40.0040 122.898 3 43 992 19 30
1994215N30149 1994 61 WP MM ELLIE 1994-08-16 06:00:00 TS 40.9273 123.673 40 994 tokyo main 0 0 OOO___________ jtwc_wp WP181994 41.4000 123.200 35 0 40.6000 123.800 3 40 994 0 9 120 120 0 40.9000 123.900 2 38 995 22 42
1994215N30149 1994 61 WP MM ELLIE 1994-08-16 09:00:00 TS 41.7141 124.791 main 0 0 PPP___________ WP181994 42.4393 123.860 30 -1 41.4470 124.990 3 997 0 9 41.6187 125.059 2 33 997 27 49
1994215N30149 1994 61 WP MM ELLIE 1994-08-16 12:00:00 ET 42.7000 126.389 1000 tokyo main 0 0 OOO___________ jtwc_wp WP181994 43.5000 124.700 25 -1 42.6000 126.600 6 1000 0 0 0 42.6000 126.600 9 29 1000 38 48
1994215N30149 1994 61 WP MM ELLIE 1994-08-16 15:00:00 ET 44.2928 128.685 main 0 0 _PP___________ WP181994 -1 44.3039 128.690 6 1001 0 0 44.2818 128.681 9 29 1000 47 45
1994215N30149 1994 61 WP MM ELLIE 1994-08-16 18:00:00 ET 46.0000 131.000 1002 tokyo main 0 0 _OO___________ -1 46.0000 131.000 6 1002 0 0 0 46.0000 131.000 9 29 1000 41 47
1994215N30149 1994 61 WP MM ELLIE 1994-08-16 21:00:00 ET 47.0717 132.978 main 0 0 _PP___________ -1 47.0162 132.922 6 1001 0 0 47.1829 133.091 9 26 1001 34 54
1994215N30149 1994 61 WP MM ELLIE 1994-08-17 00:00:00 ET 48.0000 135.000 1000 tokyo main 0 0 _OO___________ -1 48.0000 135.000 6 1000 0 0 0 48.0000 135.000 9 23 1002 42 53
1994215N30149 1994 61 WP MM ELLIE 1994-08-17 03:00:00 ET 49.5877 137.958 main 0 0 _P____________ -1 49.5877 137.958 6 999 0 0 9 49 52
1994215N30149 1994 61 WP MM ELLIE 1994-08-17 06:00:00 ET 51.0000 141.000 998 tokyo main 20 0 _O____________ -1 51.0000 141.000 6 998 0 0 0 39 59
1994215N30149 1994 61 WP MM ELLIE 1994-08-17 09:00:00 ET 51.5988 143.189 main 0 0 _P____________ -1 51.5988 143.189 6 998 0 0 27 68
1994215N30149 1994 61 WP MM ELLIE 1994-08-17 12:00:00 ET 52.0000 145.000 998 tokyo main 120 120 _O____________ -1 52.0000 145.000 6 998 0 0 0 26 64
1994215N30149 1994 61 WP MM ELLIE 1994-08-17 15:00:00 ET 52.7467 146.997 main 247 247 _P____________ -1 52.7467 146.997 6 997 0 0 28 58
1994215N30149 1994 61 WP MM ELLIE 1994-08-17 18:00:00 ET 53.5000 149.000 996 tokyo main 379 313 _O____________ -1 53.5000 149.000 6 996 0 0 0 28 63
1994215N30149 1994 61 WP MM ELLIE 1994-08-17 21:00:00 ET 54.0025 151.158 main 300 182 _P____________ -1 54.0025 151.158 6 996 0 0 25 67
1994215N30149 1994 61 WP MM ELLIE 1994-08-18 00:00:00 ET 54.5000 153.000 996 tokyo main 175 94 _O____________ -1 54.5000 153.000 6 996 0 0 0 21 54
1994215N30149 1994 61 WP MM ELLIE 1994-08-18 03:00:00 ET 55.2440 154.154 main 88 43 _P____________ -1 55.2440 154.154 6 995 0 0 19 37
1994215N30149 1994 61 WP MM ELLIE 1994-08-18 06:00:00 ET 56.0000 155.000 994 tokyo main 43 6 _O____________ -1 56.0000 155.000 6 994 0 0 0 17 39
1994215N30149 1994 61 WP MM ELLIE 1994-08-18 09:00:00 ET 56.5366 156.006 main 0 0 _P____________ -1 56.5366 156.006 6 996 0 0 15 48
1994215N30149 1994 61 WP MM ELLIE 1994-08-18 12:00:00 ET 57.0000 157.000 998 tokyo main 0 0 _O____________ -1 57.0000 157.000 6 998 0 0 0 13 48
1994215N30149 1994 61 WP MM ELLIE 1994-08-18 15:00:00 ET 57.4167 157.801 main 0 0 _P____________ -1 57.4167 157.801 6 1000 0 0 15 47
1994215N30149 1994 61 WP MM ELLIE 1994-08-18 18:00:00 ET 58.0000 159.000 1002 tokyo main 0 0 _O____________ -1 58.0000 159.000 6 1002 0 0 0 24 51
1994215N30149 1994 61 WP MM ELLIE 1994-08-18 21:00:00 ET 58.9353 161.330 main 0 0 _P____________ -1 58.9353 161.330 6 1003 0 0 32 52
1994215N30149 1994 61 WP MM ELLIE 1994-08-19 00:00:00 ET 60.0000 164.000 1004 tokyo main 0 0 _O____________ -1 60.0000 164.000 6 1004 0 0 0 31 47
1994215N30149 1994 61 WP MM ELLIE 1994-08-19 03:00:00 ET 61.0605 165.940 main 0 0 _P____________ -1 61.0605 165.940 6 1004 0 0 28 44
1994215N30149 1994 61 WP MM ELLIE 1994-08-19 06:00:00 ET 62.0000 168.000 1004 tokyo main 0 0 _O____________ -1 62.0000 168.000 6 1004 0 0 0 27 64
1994215N30149 1994 61 WP MM ELLIE 1994-08-19 09:00:00 ET 62.2104 171.045 main 0 0 _P____________ -1 62.2104 171.045 6 1004 0 0 29 70
1994215N30149 1994 61 WP MM ELLIE 1994-08-19 12:00:00 ET 63.0000 174.000 1004 tokyo main 0 0 _O____________ -1 63.0000 174.000 6 1004 0 0 0 40 37
1994215N30149 1994 61 WP MM ELLIE 1994-08-19 15:00:00 ET 65.4735 176.445 main 0 0 _P____________ -1 65.4735 176.445 6 1004 0 0 63 19
1994215N30149 1994 61 WP MM ELLIE 1994-08-19 18:00:00 ET 69.0000 179.000 1004 tokyo main 0 _O____________ -1 69.0000 179.000 6 1004 0 0 0 73 15

デジタル台風データ・検索

IBTrACS Databaseについて

本データベースは、米国NOAAが公開する1842年以降の世界の熱帯低気圧のベストトラックデータアーカイブInternational Best Track Archive for Climate Stewardship (IBTrACS)を、ウェブで閲覧しやすい形式に変換したものです。

最終更新日:2021-10-08